createdAt,value
2022-11-28T00:02:20.902Z,11.99
2022-11-28T00:04:50.241Z,12.05
2022-11-28T00:07:16.955Z,12.12
2022-11-28T00:09:43.687Z,11.93
2022-11-28T00:12:10.170Z,12.01
2022-11-28T00:14:36.770Z,11.68
2022-11-28T00:17:03.395Z,11.83
2022-11-28T00:19:30.030Z,12.19
2022-11-28T00:21:56.705Z,12.02
2022-11-28T00:24:23.303Z,11.75
2022-11-28T00:26:49.981Z,12.16
2022-11-28T00:29:16.499Z,12.01
2022-11-28T00:31:43.806Z,12.31
2022-11-28T00:34:12.145Z,11.95
2022-11-28T00:36:38.741Z,11.90
2022-11-28T00:39:05.474Z,11.77
2022-11-28T00:41:33.974Z,12.33
2022-11-28T00:44:00.801Z,12.11
2022-11-28T00:46:27.997Z,11.61
2022-11-28T00:48:54.625Z,11.69
2022-11-28T00:51:23.144Z,11.86
2022-11-28T00:53:50.852Z,11.84
2022-11-28T00:56:19.474Z,11.68
2022-11-28T00:58:49.294Z,12.07
2022-11-28T01:01:21.673Z,12.13
2022-11-28T01:03:49.469Z,12.20
2022-11-28T01:06:27.167Z,12.03
2022-11-28T01:08:54.105Z,11.95
2022-11-28T01:11:21.005Z,12.23
2022-11-28T01:13:47.691Z,11.73
2022-11-28T01:16:14.401Z,11.62
2022-11-28T01:18:41.067Z,11.89
2022-11-28T01:21:08.463Z,11.58
2022-11-28T01:23:35.497Z,11.38
2022-11-28T01:26:03.230Z,11.27
2022-11-28T01:28:29.926Z,10.91
2022-11-28T01:30:56.594Z,11.12
2022-11-28T01:33:23.359Z,11.50
2022-11-28T01:35:57.966Z,11.47
2022-11-28T01:38:24.716Z,11.44
2022-11-28T01:40:51.767Z,11.68
2022-11-28T01:43:18.495Z,11.55
2022-11-28T01:45:45.744Z,11.42
2022-11-28T01:48:15.604Z,11.44
2022-11-28T01:50:46.005Z,11.30
2022-11-28T01:53:13.643Z,11.15
2022-11-28T01:55:44.397Z,11.01
2022-11-28T01:58:12.080Z,11.01
2022-11-28T02:00:38.840Z,10.86
2022-11-28T02:03:09.855Z,11.38
2022-11-28T02:05:36.497Z,10.76
2022-11-28T02:08:03.406Z,11.09
2022-11-28T02:10:41.043Z,11.06
2022-11-28T02:13:25.549Z,10.91
2022-11-28T02:16:07.159Z,10.94
2022-11-28T02:18:50.126Z,10.89
2022-11-28T02:21:25.603Z,10.97
2022-11-28T02:24:07.639Z,11.27
2022-11-28T02:26:52.629Z,11.41
2022-11-28T02:29:28.065Z,11.44
2022-11-28T02:31:57.639Z,11.21
2022-11-28T02:34:27.024Z,11.66
2022-11-28T02:37:04.003Z,11.46
2022-11-28T02:39:36.625Z,11.57
2022-11-28T02:42:15.467Z,11.94
2022-11-28T02:44:53.343Z,12.26
2022-11-28T02:47:32.230Z,11.95
2022-11-28T02:50:23.501Z,12.15
2022-11-28T02:52:57.691Z,12.24
2022-11-28T02:55:24.910Z,12.20
2022-11-28T02:57:53.893Z,12.37
2022-11-28T03:00:26.397Z,12.19
2022-11-28T03:02:58.838Z,11.68
2022-11-28T03:05:36.331Z,12.37
2022-11-28T03:08:03.187Z,11.48
2022-11-28T03:10:38.007Z,11.70
2022-11-28T03:13:20.039Z,12.11
2022-11-28T03:15:46.595Z,11.73
2022-11-28T03:18:32.228Z,11.67
2022-11-28T03:21:10.629Z,11.84
2022-11-28T03:23:47.919Z,11.86
2022-11-28T03:26:17.323Z,11.96
2022-11-28T03:29:16.423Z,11.65
2022-11-28T03:31:47.916Z,11.83
2022-11-28T03:34:18.409Z,12.10
2022-11-28T03:36:49.237Z,11.92
2022-11-28T03:39:20.109Z,11.70
2022-11-28T03:41:54.694Z,11.23
2022-11-28T03:44:27.420Z,11.46
2022-11-28T03:46:57.545Z,11.38
2022-11-28T03:49:29.147Z,10.86
2022-11-28T03:51:59.272Z,10.77
2022-11-28T03:54:34.098Z,10.71
2022-11-28T03:57:11.827Z,10.54
2022-11-28T03:59:42.981Z,10.65
2022-11-28T04:02:18.827Z,10.67
2022-11-28T04:04:48.491Z,10.47
2022-11-28T04:07:30.551Z,10.96
2022-11-28T04:10:15.045Z,11.10
2022-11-28T04:13:00.349Z,11.04
2022-11-28T04:15:32.179Z,11.20
2022-11-28T04:18:22.001Z,11.44
2022-11-28T04:20:58.436Z,11.68
2022-11-28T04:23:28.094Z,11.82
2022-11-28T04:26:00.014Z,12.28
2022-11-28T04:28:30.576Z,12.50
2022-11-28T04:31:00.552Z,12.30
2022-11-28T04:33:30.350Z,12.55
2022-11-28T04:35:57.829Z,12.21
2022-11-28T04:38:27.658Z,12.45
2022-11-28T04:41:00.505Z,13.12
2022-11-28T04:43:31.769Z,13.23
2022-11-28T04:46:07.663Z,13.31
2022-11-28T04:48:34.720Z,13.57
2022-11-28T04:51:23.091Z,13.36
2022-11-28T04:54:00.178Z,13.57
2022-11-28T04:56:37.058Z,13.64
2022-11-28T04:59:06.397Z,14.24
2022-11-28T05:01:34.730Z,14.23
2022-11-28T05:04:02.602Z,14.26
2022-11-28T05:06:30.664Z,14.73
2022-11-28T05:08:57.422Z,15.28
2022-11-28T05:11:24.354Z,14.59
2022-11-28T05:13:50.905Z,14.71
2022-11-28T05:16:17.799Z,14.75
2022-11-28T05:18:44.503Z,14.89
2022-11-28T05:21:11.110Z,15.10
2022-11-28T05:23:42.571Z,14.90
2022-11-28T05:26:20.873Z,14.27
2022-11-28T05:28:49.802Z,14.25
2022-11-28T05:31:17.733Z,13.81
2022-11-28T05:33:44.473Z,14.10
2022-11-28T05:36:13.415Z,14.11
2022-11-28T05:38:40.972Z,13.83
2022-11-28T05:41:08.058Z,14.05
2022-11-28T05:43:35.111Z,14.13
2022-11-28T05:46:04.175Z,14.51
2022-11-28T05:48:30.738Z,14.41
2022-11-28T05:50:57.417Z,14.34
2022-11-28T05:53:24.469Z,15.02
2022-11-28T05:55:51.063Z,15.02
2022-11-28T05:58:17.701Z,15.02
2022-11-28T06:00:44.293Z,14.16
2022-11-28T06:03:10.874Z,13.73
2022-11-28T06:05:43.687Z,13.91
2022-11-28T06:08:11.854Z,12.75
2022-11-28T06:10:38.566Z,13.17
2022-11-28T06:13:05.304Z,12.64
2022-11-28T06:15:36.188Z,11.98
2022-11-28T06:18:04.418Z,12.79
2022-11-28T06:20:30.953Z,12.62
2022-11-28T06:22:57.598Z,13.09
2022-11-28T06:25:24.152Z,13.38
2022-11-28T06:27:50.677Z,13.27
2022-11-28T06:30:17.408Z,14.01
2022-11-28T06:32:44.050Z,14.25
2022-11-28T06:35:10.663Z,14.85
2022-11-28T06:37:37.396Z,16.18
2022-11-28T06:40:04.915Z,16.05
2022-11-28T06:42:31.513Z,15.79
2022-11-28T06:44:58.129Z,16.65
2022-11-28T06:47:24.880Z,18.15
2022-11-28T06:49:51.467Z,17.66
2022-11-28T06:52:18.100Z,21.07
2022-11-28T06:54:44.852Z,26.74
2022-11-28T06:57:11.453Z,22.37
2022-11-28T06:59:38.067Z,22.73
2022-11-28T07:02:07.752Z,22.03
2022-11-28T07:04:34.833Z,20.48
2022-11-28T07:07:01.670Z,20.70
2022-11-28T07:09:28.399Z,20.84
2022-11-28T07:11:55.313Z,21.79
2022-11-28T07:14:22.516Z,21.32
2022-11-28T07:16:49.300Z,20.70
2022-11-28T07:19:16.175Z,22.77
2022-11-28T07:21:42.762Z,24.37
2022-11-28T07:24:09.343Z,21.47
2022-11-28T07:26:38.094Z,21.41
2022-11-28T07:29:07.037Z,21.09
2022-11-28T07:31:33.878Z,21.22
2022-11-28T07:34:03.456Z,21.23
2022-11-28T07:36:30.887Z,20.71
2022-11-28T07:38:59.112Z,21.67
2022-11-28T07:41:29.541Z,21.12
2022-11-28T07:43:58.164Z,21.54
2022-11-28T07:46:25.287Z,22.42
2022-11-28T07:48:52.512Z,23.26
2022-11-28T07:51:22.118Z,22.29
2022-11-28T07:53:49.000Z,23.97
2022-11-28T07:56:22.222Z,23.48
2022-11-28T07:58:49.313Z,23.51
2022-11-28T08:01:23.427Z,23.81
2022-11-28T08:03:50.511Z,23.80
2022-11-28T08:06:18.439Z,24.64
2022-11-28T08:08:47.116Z,24.93
2022-11-28T08:11:14.824Z,24.95
2022-11-28T08:13:41.419Z,25.86
2022-11-28T08:16:18.495Z,24.90
2022-11-28T08:18:45.151Z,26.19
2022-11-28T08:21:13.819Z,26.81
2022-11-28T08:23:40.800Z,26.62
2022-11-28T08:26:13.383Z,27.04
2022-11-28T08:28:40.806Z,27.20
2022-11-28T08:31:10.337Z,27.18
2022-11-28T08:33:37.042Z,28.15
2022-11-28T08:36:04.808Z,27.90
2022-11-28T08:38:31.439Z,27.32
2022-11-28T08:41:02.310Z,26.88
2022-11-28T08:43:29.121Z,28.32
2022-11-28T08:45:55.805Z,28.30
2022-11-28T08:48:22.345Z,27.72
2022-11-28T08:50:49.967Z,28.66
2022-11-28T08:53:18.482Z,28.67
2022-11-28T08:55:45.727Z,28.90
2022-11-28T08:58:12.732Z,31.24
2022-11-28T09:00:40.088Z,30.75
2022-11-28T09:03:06.621Z,29.68
2022-11-28T09:05:33.196Z,29.60
2022-11-28T09:07:59.915Z,29.73
2022-11-28T09:10:26.752Z,30.69
2022-11-28T09:12:53.373Z,30.14
2022-11-28T09:15:19.980Z,30.78
2022-11-28T09:17:46.609Z,30.89
2022-11-28T09:20:13.481Z,30.84
2022-11-28T09:22:40.792Z,31.17
2022-11-28T09:25:07.730Z,31.25
2022-11-28T09:27:34.345Z,31.64
2022-11-28T09:30:00.929Z,30.82
2022-11-28T09:32:27.587Z,31.05
2022-11-28T09:34:54.583Z,31.18
2022-11-28T09:37:21.171Z,31.60
2022-11-28T09:40:11.426Z,31.05
2022-11-28T09:42:39.395Z,32.06
2022-11-28T09:45:11.817Z,32.74
2022-11-28T09:47:41.515Z,32.44
2022-11-28T09:50:15.475Z,34.41
2022-11-28T09:52:42.031Z,33.48
2022-11-28T09:55:23.039Z,34.15
2022-11-28T09:57:54.425Z,33.27
2022-11-28T10:00:22.968Z,34.19
2022-11-28T10:03:09.883Z,34.66
2022-11-28T10:05:42.454Z,34.69
2022-11-28T10:08:21.307Z,35.21
2022-11-28T10:11:02.208Z,35.61
2022-11-28T10:14:05.992Z,35.80
2022-11-28T10:16:46.238Z,36.30
2022-11-28T10:19:46.099Z,36.70
2022-11-28T10:22:07.326Z,36.38
2022-11-28T10:24:36.942Z,36.59
2022-11-28T10:27:04.980Z,36.68
2022-11-28T10:29:34.519Z,37.35
2022-11-28T10:32:04.274Z,36.10
2022-11-28T10:34:35.162Z,36.46
2022-11-28T10:37:06.832Z,37.00
2022-11-28T10:39:37.659Z,37.37
2022-11-28T10:42:14.042Z,38.35
2022-11-28T10:44:50.996Z,38.03
2022-11-28T10:47:37.723Z,38.24
2022-11-28T10:50:12.433Z,37.76
2022-11-28T10:52:48.491Z,37.54
2022-11-28T10:55:24.241Z,37.96
2022-11-28T10:58:09.160Z,38.81
2022-11-28T11:00:37.200Z,38.25
2022-11-28T11:03:04.231Z,38.98
2022-11-28T11:05:32.708Z,41.20
2022-11-28T11:08:02.877Z,50.00
2022-11-28T11:10:29.461Z,38.63
2022-11-28T11:12:56.323Z,37.51
2022-11-28T11:15:30.055Z,38.68
2022-11-28T11:17:57.569Z,38.74
2022-11-28T11:20:29.955Z,36.90
2022-11-28T11:22:58.626Z,37.78
2022-11-28T11:25:27.863Z,37.67
2022-11-28T11:28:03.828Z,40.28
2022-11-28T11:30:38.820Z,38.69
2022-11-28T11:33:08.216Z,34.52
2022-11-28T11:35:36.185Z,35.64
2022-11-28T11:38:21.151Z,37.97
2022-11-28T11:40:48.916Z,36.71
2022-11-28T11:43:27.443Z,34.64
2022-11-28T11:46:10.953Z,33.51
2022-11-28T11:48:41.105Z,31.72
2022-11-28T11:51:21.609Z,32.71
2022-11-28T11:53:48.190Z,31.97
2022-11-28T11:56:15.018Z,30.72
2022-11-28T11:58:46.363Z,30.46
2022-11-28T12:01:17.102Z,28.88
2022-11-28T12:04:13.267Z,29.65
2022-11-28T12:06:51.982Z,29.30
2022-11-28T12:09:42.580Z,29.23
2022-11-28T12:12:23.709Z,29.92
2022-11-28T12:14:51.081Z,27.93
2022-11-28T12:17:48.333Z,28.18
2022-11-28T12:20:26.342Z,25.87
2022-11-28T12:23:01.910Z,25.91
2022-11-28T12:25:45.236Z,25.15
2022-11-28T12:28:29.658Z,25.11
2022-11-28T12:31:15.145Z,25.76
2022-11-28T12:33:57.777Z,24.24
2022-11-28T12:36:36.875Z,23.30
2022-11-28T12:39:15.410Z,23.76
2022-11-28T12:41:42.149Z,24.68
2022-11-28T12:44:21.983Z,24.84
2022-11-28T12:46:48.578Z,24.44
2022-11-28T12:49:20.169Z,25.87
2022-11-28T12:51:49.782Z,26.13
2022-11-28T12:54:22.351Z,25.21
2022-11-28T12:57:07.876Z,25.31
2022-11-28T12:59:37.649Z,25.10
2022-11-28T13:02:10.157Z,24.80
2022-11-28T13:04:49.463Z,24.50
2022-11-28T13:07:39.107Z,26.01
2022-11-28T13:10:23.587Z,25.92
2022-11-28T13:12:59.475Z,24.71
2022-11-28T13:15:49.397Z,25.26
2022-11-28T13:18:29.599Z,24.58
2022-11-28T13:21:02.771Z,25.60
2022-11-28T13:23:36.839Z,25.60
2022-11-28T13:26:19.963Z,25.82
2022-11-28T13:29:07.031Z,25.44
2022-11-28T13:31:50.066Z,26.42
2022-11-28T13:34:18.970Z,24.84
2022-11-28T13:40:08.461Z,25.24
2022-11-28T13:43:07.182Z,25.75
2022-11-28T13:45:39.148Z,24.16
2022-11-28T13:48:42.826Z,24.49
2022-11-28T13:51:18.235Z,25.17
2022-11-28T13:53:47.426Z,24.95
2022-11-28T13:56:17.024Z,23.76
2022-11-28T13:58:51.982Z,24.23
2022-11-28T14:01:23.625Z,24.15
2022-11-28T14:03:50.291Z,23.85
2022-11-28T14:06:20.308Z,24.77
2022-11-28T14:08:50.122Z,25.63
2022-11-28T14:11:27.681Z,25.79
2022-11-28T14:13:57.805Z,25.76
2022-11-28T14:16:48.294Z,26.74
2022-11-28T14:19:29.371Z,25.61
2022-11-28T14:21:56.029Z,26.23
2022-11-28T14:24:37.386Z,26.58
2022-11-28T14:27:05.793Z,26.14
2022-11-28T14:29:41.412Z,26.64
2022-11-28T14:32:30.120Z,25.97
2022-11-28T14:34:57.626Z,27.22
2022-11-28T14:37:28.810Z,27.45
2022-11-28T14:39:57.005Z,26.96
2022-11-28T14:45:31.998Z,27.25
2022-11-28T14:48:16.722Z,26.39
2022-11-28T14:50:47.829Z,26.10
2022-11-28T14:53:33.001Z,25.83
2022-11-28T14:56:31.977Z,25.19
2022-11-28T14:59:01.802Z,25.34
2022-11-28T15:01:28.303Z,25.83
2022-11-28T15:04:13.789Z,26.33
2022-11-28T15:06:40.522Z,27.16
2022-11-28T15:09:15.340Z,27.64
2022-11-28T15:12:05.145Z,26.19
2022-11-28T15:14:33.761Z,25.46
2022-11-28T15:17:05.526Z,26.44
2022-11-28T15:19:46.442Z,25.98
2022-11-28T15:22:30.919Z,25.94
2022-11-28T15:24:57.903Z,26.40
2022-11-28T15:27:26.107Z,26.48
2022-11-28T15:29:54.397Z,25.59
2022-11-28T15:32:21.642Z,26.26
2022-11-28T15:34:54.754Z,26.15
2022-11-28T15:37:25.408Z,26.89
2022-11-28T15:39:52.102Z,28.28
2022-11-28T15:42:30.058Z,30.15
2022-11-28T15:45:00.233Z,28.10
2022-11-28T15:47:28.315Z,28.19
2022-11-28T15:50:14.528Z,27.26
2022-11-28T15:52:52.194Z,29.21
2022-11-28T15:55:20.027Z,30.77
2022-11-28T15:57:46.617Z,30.27
2022-11-28T16:00:17.771Z,29.60
2022-11-28T16:02:45.391Z,29.97
2022-11-28T16:05:20.965Z,29.95
2022-11-28T16:07:49.919Z,30.86
2022-11-28T16:10:30.043Z,30.16
2022-11-28T16:13:02.920Z,30.62
2022-11-28T16:15:30.650Z,32.11
2022-11-28T16:17:57.471Z,31.30
2022-11-28T16:20:27.535Z,31.16
2022-11-28T16:23:02.733Z,30.73
2022-11-28T16:25:30.357Z,30.37
2022-11-28T16:27:57.656Z,30.52
2022-11-28T16:30:43.499Z,29.94
2022-11-28T16:33:29.009Z,32.15
2022-11-28T16:36:08.261Z,30.91
2022-11-28T16:38:35.706Z,29.82
2022-11-28T16:41:02.343Z,30.93
2022-11-28T16:43:38.289Z,30.72
2022-11-28T16:46:06.879Z,29.57
2022-11-28T16:48:38.156Z,30.65
2022-11-28T16:51:10.931Z,31.25
2022-11-28T16:53:44.193Z,31.42
2022-11-28T16:56:26.021Z,31.12
2022-11-28T16:58:55.103Z,30.27
2022-11-28T17:01:21.939Z,30.15
2022-11-28T17:03:57.946Z,29.94
2022-11-28T17:06:30.237Z,35.04
2022-11-28T17:08:56.994Z,36.00
2022-11-28T17:11:26.831Z,31.20
2022-11-28T17:13:57.280Z,32.07
2022-11-28T17:16:25.156Z,37.90
2022-11-28T17:18:51.847Z,33.43
2022-11-28T17:21:26.571Z,31.13
2022-11-28T17:23:53.394Z,29.87
2022-11-28T17:26:20.073Z,31.20
2022-11-28T17:28:47.113Z,29.79
2022-11-28T17:31:14.017Z,29.36
2022-11-28T17:33:44.506Z,29.71
2022-11-28T17:36:12.021Z,29.55
2022-11-28T17:38:39.167Z,30.69
2022-11-28T17:41:06.257Z,29.67
2022-11-28T17:43:38.784Z,28.99
2022-11-28T17:46:05.808Z,29.12
2022-11-28T17:48:32.463Z,33.34
2022-11-28T17:50:59.422Z,33.02
2022-11-28T17:53:26.035Z,31.11
2022-11-28T17:55:58.582Z,29.94
2022-11-28T17:58:26.596Z,31.20
2022-11-28T18:00:59.966Z,31.73
2022-11-28T18:03:27.684Z,31.56
2022-11-28T18:05:54.335Z,31.81
2022-11-28T18:08:22.211Z,31.44
2022-11-28T18:10:49.219Z,30.94
2022-11-28T18:13:17.365Z,29.62
2022-11-28T18:15:45.275Z,28.78
2022-11-28T18:18:12.137Z,28.10
2022-11-28T18:20:38.722Z,28.32
2022-11-28T18:23:05.477Z,26.53
2022-11-28T18:25:32.090Z,27.39
2022-11-28T18:27:58.830Z,27.54
2022-11-28T18:30:25.359Z,28.44
2022-11-28T18:32:51.956Z,27.94
2022-11-28T18:35:19.509Z,27.64
2022-11-28T18:37:46.368Z,27.52
2022-11-28T18:40:13.307Z,28.24
2022-11-28T18:42:40.243Z,26.55
2022-11-28T18:45:07.395Z,27.44
2022-11-28T18:47:35.114Z,25.88
2022-11-28T18:50:01.942Z,25.78
2022-11-28T18:52:28.675Z,24.21
2022-11-28T18:54:55.236Z,23.64
2022-11-28T18:57:21.690Z,23.06
2022-11-28T18:59:54.684Z,23.26
2022-11-28T19:02:21.803Z,22.07
2022-11-28T19:04:48.620Z,23.22
2022-11-28T19:07:15.195Z,25.97
2022-11-28T19:09:44.069Z,22.90
2022-11-28T19:12:11.610Z,22.71
2022-11-28T19:14:38.465Z,23.72
2022-11-28T19:17:05.288Z,23.91
2022-11-28T19:19:31.929Z,24.99
2022-11-28T19:21:58.490Z,24.10
2022-11-28T19:24:25.170Z,24.15
2022-11-28T19:26:51.742Z,26.81
2022-11-28T19:29:18.475Z,28.75
2022-11-28T19:31:45.289Z,23.85
2022-11-28T19:34:16.467Z,23.60
2022-11-28T19:36:44.951Z,33.43
2022-11-28T19:39:24.808Z,29.74
2022-11-28T19:41:52.755Z,25.84
2022-11-28T19:44:20.951Z,23.86
2022-11-28T19:46:48.083Z,24.34
2022-11-28T19:49:19.556Z,25.79
2022-11-28T19:51:47.300Z,23.87
2022-11-28T19:54:14.380Z,26.74
2022-11-28T19:56:41.183Z,27.80
2022-11-28T19:59:07.895Z,27.23
2022-11-28T20:01:34.668Z,28.59
2022-11-28T20:04:01.411Z,26.36
2022-11-28T20:06:30.301Z,26.42
2022-11-28T20:08:59.089Z,26.58
2022-11-28T20:11:28.364Z,26.66
2022-11-28T20:13:56.301Z,27.41
2022-11-28T20:16:22.911Z,27.38
2022-11-28T20:18:49.552Z,27.61
2022-11-28T20:21:17.557Z,29.38
2022-11-28T20:23:44.320Z,29.75
2022-11-28T20:26:11.855Z,31.28
2022-11-28T20:28:39.920Z,33.77
2022-11-28T20:31:07.418Z,34.47
2022-11-28T20:33:34.065Z,33.11
2022-11-28T20:36:08.095Z,34.16
2022-11-28T20:38:35.559Z,34.05
2022-11-28T20:41:03.508Z,31.90
2022-11-28T20:43:34.943Z,37.52
2022-11-28T20:46:03.472Z,36.86
2022-11-28T20:48:30.765Z,37.44
2022-11-28T20:50:57.460Z,36.76
2022-11-28T20:53:26.953Z,37.35
2022-11-28T20:56:05.271Z,38.57
2022-11-28T20:58:32.102Z,40.77
2022-11-28T21:00:59.546Z,40.58
2022-11-28T21:03:26.181Z,39.94
2022-11-28T21:05:59.379Z,41.89
2022-11-28T21:08:30.559Z,40.06
2022-11-28T21:10:57.371Z,41.46
2022-11-28T21:13:24.126Z,41.62
2022-11-28T21:15:52.053Z,40.79
2022-11-28T21:18:18.717Z,42.26
2022-11-28T21:20:46.664Z,43.33
2022-11-28T21:23:14.028Z,46.62
2022-11-28T21:25:41.655Z,45.83
2022-11-28T21:28:09.889Z,46.10
2022-11-28T21:30:41.090Z,47.68
2022-11-28T21:33:07.712Z,47.29
2022-11-28T21:35:36.091Z,47.70
2022-11-28T21:38:02.730Z,47.84
2022-11-28T21:40:29.390Z,49.11
2022-11-28T21:42:56.848Z,49.14
2022-11-28T21:45:26.639Z,49.04
2022-11-28T21:47:53.283Z,50.15
2022-11-28T21:50:19.846Z,48.55
2022-11-28T21:52:46.590Z,48.72
2022-11-28T21:55:13.187Z,48.69
2022-11-28T21:57:42.159Z,50.87
2022-11-28T22:00:25.593Z,50.19
2022-11-28T22:03:02.537Z,48.76
2022-11-28T22:05:32.099Z,50.26
2022-11-28T22:07:58.733Z,50.69
2022-11-28T22:10:26.027Z,49.67
2022-11-28T22:12:53.632Z,50.40
2022-11-28T22:15:20.707Z,50.03
2022-11-28T22:17:47.266Z,49.62
2022-11-28T22:20:14.072Z,49.49
2022-11-28T22:22:40.710Z,48.46
2022-11-28T22:25:07.447Z,48.94
2022-11-28T22:27:35.530Z,48.74
2022-11-28T22:30:02.259Z,49.46
2022-11-28T22:32:29.338Z,48.62
2022-11-28T22:34:56.082Z,48.83
2022-11-28T22:37:22.982Z,46.75
2022-11-28T22:39:49.520Z,45.96
2022-11-28T22:42:18.422Z,47.44
2022-11-28T22:44:45.373Z,47.17
2022-11-28T22:47:12.107Z,47.68
2022-11-28T22:49:38.733Z,46.85
2022-11-28T22:52:05.395Z,48.32
2022-11-28T22:54:32.464Z,47.24
2022-11-28T22:56:59.254Z,47.74
2022-11-28T22:59:25.804Z,45.20
2022-11-28T23:01:52.653Z,46.21
2022-11-28T23:04:19.373Z,47.03
2022-11-28T23:06:45.959Z,46.54
2022-11-28T23:09:13.718Z,47.73
2022-11-28T23:11:40.657Z,46.28
2022-11-28T23:14:07.933Z,47.41
2022-11-28T23:16:39.158Z,46.69
2022-11-28T23:19:08.571Z,45.97
2022-11-28T23:21:37.100Z,46.41
2022-11-28T23:24:04.556Z,44.91
2022-11-28T23:26:32.170Z,45.29
2022-11-28T23:29:00.517Z,45.00
2022-11-28T23:31:29.290Z,46.06
2022-11-28T23:33:57.460Z,45.70
2022-11-28T23:36:25.317Z,45.56
2022-11-28T23:38:54.004Z,46.75
2022-11-28T23:41:20.941Z,45.70
2022-11-28T23:43:47.586Z,44.01
2022-11-28T23:46:15.391Z,43.53
2022-11-28T23:48:43.868Z,43.26
2022-11-28T23:51:12.844Z,42.83
2022-11-28T23:53:40.420Z,43.07
2022-11-28T23:56:11.363Z,44.10
2022-11-28T23:58:38.570Z,44.09
